Погода Акулинкина 2 недели

Смоленская область, Россия

23 июля-05 августа
  • 23июля
    Сегодня
    +13°
    +24°
    Ясно и безоблачно
    ВремяПогодаТемператураВлажностьДавлениеВетер, м/сВероятность осадков
    00:00Ясно и безоблачно+16°C92 %741 мм0.7 м/с2 %
    03:00Ясно и безоблачно+15°C97 %741 мм0.7 м/с2 %
    06:00Практически безоблачно+15°C95 %742 мм1.2 м/с2 %
    09:00Ясно и безоблачно+20°C71 %742 мм2.4 м/с2 %
    12:00Ясно и безоблачно+23°C52 %742 мм2.6 м/с21 %
    15:00Ясно и безоблачно+24°C43 %742 мм2.7 м/с22 %
    18:00Ясно и безоблачно+24°C41 %742 мм2.0 м/с12 %
    21:00Ясно и безоблачно+19°C55 %742 мм0.9 м/с2 %
  • 24июля
    Среда
    +11°
    +25°
    Пасмурно, сплошная облачность
    ВремяПогодаТемператураВлажностьДавлениеВетер, м/сВероятность осадков
    00:00Практически безоблачно+16°C66 %742 мм0.9 м/с2 %
    03:00Небольшая облачность+15°C71 %742 мм0.6 м/с2 %
    06:00Ясно и безоблачно+14°C74 %742 мм0.8 м/с2 %
    09:00Ясно и безоблачно+20°C54 %743 мм1.8 м/с2 %
    12:00Облачно с прояснениями+23°C39 %743 мм2.3 м/с2 %
    15:00Пасмурно, сплошная облачность+24°C36 %742 мм2.2 м/с2 %
    18:00Небольшая облачность+24°C36 %741 мм1.5 м/с2 %
    21:00Ясно и безоблачно+19°C47 %741 мм0.6 м/с2 %
  • 25июля
    Четверг
    +13°
    +26°
    Небольшая облачность
    ВремяПогодаТемператураВлажностьДавлениеВетер, м/сВероятность осадков
    00:00Ясно и безоблачно+14°C62 %741 мм0.3 м/с2 %
    03:00Практически безоблачно+12°C74 %741 мм0.0 м/с2 %
    06:00Ясно и безоблачно+13°C79 %741 мм0.3 м/с2 %
    09:00Ясно и безоблачно+21°C50 %741 мм1.2 м/с2 %
    12:00Облачно с прояснениями+24°C38 %741 мм1.8 м/с5 %
    15:00Небольшая облачность+26°C36 %740 мм1.8 м/с9 %
    18:00Небольшая облачность+26°C37 %740 мм1.5 м/с22 %
    21:00Практически безоблачно+20°C54 %740 мм0.8 м/с11 %
  • 26июля
    Пятница
    +14°
    +27°
    Облачно с прояснениями
    ВремяПогодаТемператураВлажностьДавлениеВетер, м/сВероятность осадков
    00:00Ясно и безоблачно+17°C69 %740 мм0.4 м/с3 %
    03:00Ясно и безоблачно+15°C88 %741 мм0.3 м/с2 %
    06:00Ясно и безоблачно+15°C89 %741 мм0.7 м/с2 %
    09:00Ясно и безоблачно+22°C65 %742 мм1.6 м/с2 %
    12:00Ясно и безоблачно+25°C50 %743 мм2.1 м/с18 %
    15:00Облачно с прояснениями+27°C47 %743 мм2.2 м/с19 %
    18:00Облачно с прояснениями+24°C52 %743 мм1.9 м/с44 %
    21:00Ясно и безоблачно+19°C68 %744 мм0.5 м/с16 %
  • 27июля
    Суббота
    +15°
    +28°
    Практически безоблачно
    ВремяПогодаТемператураВлажностьДавлениеВетер, м/сВероятность осадков
    00:00Практически безоблачно+17°C80 %744 мм0.4 м/с4 %
    03:00Ясно и безоблачно+15°C83 %745 мм0.1 м/с4 %
    06:00Ясно и безоблачно+15°C86 %746 мм0.4 м/с4 %
    09:00Ясно и безоблачно+22°C53 %747 мм1.4 м/с9 %
    12:00Практически безоблачно+26°C41 %747 мм1.8 м/с16 %
    15:00Практически безоблачно+28°C40 %747 мм2.2 м/с22 %
    18:00Облачно с прояснениями+25°C47 %747 мм1.5 м/с29 %
    21:00Практически безоблачно+19°C74 %747 мм0.4 м/с14 %
Мы используем cookies
Соглашаюсь